Time;durP1;ratioP1;P1;durP2;ratioP2;P2;SDS_P1;SDS_P2;PMS_P1;PMS_P2;Temp;Humidity;BMP_temperature;BMP_pressure;BME280_temperature;BME280_humidity;BME280_pressure;Samples;Min_cycle;Max_cycle;Signal;HPM_P1;HPM_P2
2024/02/21 00:00:18;;;;;;;17.93;6.63;;;2.20;99.90;;;;;;5022376;28;20176;-60
2024/02/21 00:02:43;;;;;;;18.00;6.97;;;2.20;99.90;;;;;;5003822;28;20176;-59
2024/02/21 00:05:09;;;;;;;12.60;6.90;;;2.20;99.90;;;;;;5007590;28;20628;-59
2024/02/21 00:07:35;;;;;;;14.20;7.33;;;2.20;99.90;;;;;;5005900;28;20234;-60
2024/02/21 00:10:00;;;;;;;14.90;5.73;;;2.20;99.90;;;;;;5008174;28;20177;-60
2024/02/21 00:12:26;;;;;;;15.63;6.60;;;2.20;99.90;;;;;;5003118;28;20176;-59
2024/02/21 00:14:51;;;;;;;12.20;6.40;;;2.30;99.90;;;;;;5009255;28;20610;-60
2024/02/21 00:17:17;;;;;;;14.70;6.57;;;2.30;99.90;;;;;;5011204;28;20185;-59
2024/02/21 00:19:42;;;;;;;19.83;7.70;;;2.30;99.90;;;;;;5009360;28;20617;-59
2024/02/21 00:22:08;;;;;;;11.93;6.83;;;2.30;99.90;;;;;;5009534;28;20278;-60
2024/02/21 00:24:34;;;;;;;14.03;6.53;;;2.30;99.90;;;;;;5010547;28;20791;-59
2024/02/21 00:26:59;;;;;;;11.37;7.50;;;2.30;99.90;;;;;;5009613;28;20182;-59
2024/02/21 00:29:25;;;;;;;18.53;8.80;;;2.30;99.90;;;;;;5009406;28;20176;-59
2024/02/21 00:31:51;;;;;;;17.40;8.10;;;2.30;99.90;;;;;;5010426;28;20179;-60
2024/02/21 00:34:16;;;;;;;16.30;8.30;;;2.30;99.90;;;;;;5011284;28;21089;-60
2024/02/21 00:36:42;;;;;;;19.03;8.63;;;2.30;99.90;;;;;;5006167;28;20561;-59
2024/02/21 00:39:08;;;;;;;17.73;9.20;;;2.30;99.90;;;;;;5008963;28;20274;-59
2024/02/21 00:41:33;;;;;;;15.67;8.27;;;2.20;99.90;;;;;;5011202;28;20548;-59
2024/02/21 00:43:59;;;;;;;17.20;8.67;;;2.20;99.90;;;;;;5006619;28;20220;-59
2024/02/21 00:46:24;;;;;;;21.13;8.70;;;2.20;99.90;;;;;;5007936;28;20175;-59
2024/02/21 00:48:50;;;;;;;14.50;7.40;;;2.20;99.90;;;;;;5004203;28;20190;-59
2024/02/21 00:51:16;;;;;;;18.10;9.10;;;2.20;99.90;;;;;;5010307;28;20193;-59
2024/02/21 00:53:42;;;;;;;15.93;8.20;;;2.20;99.90;;;;;;5008422;28;20200;-59
2024/02/21 00:56:08;;;;;;;17.27;8.03;;;2.20;99.90;;;;;;5010969;28;20168;-60
2024/02/21 00:58:34;;;;;;;16.30;8.47;;;2.20;99.90;;;;;;5007672;28;20431;-60
2024/02/21 01:01:00;;;;;;;19.50;8.23;;;2.20;99.90;;;;;;5010463;28;20180;-59
2024/02/21 01:03:26;;;;;;;14.27;8.07;;;2.20;99.90;;;;;;5010618;28;20208;-59
2024/02/21 01:05:52;;;;;;;16.30;7.30;;;2.30;99.90;;;;;;5008608;28;20429;-59
2024/02/21 01:08:17;;;;;;;11.30;7.00;;;2.30;99.90;;;;;;5004032;28;20331;-59
2024/02/21 01:10:43;;;;;;;16.43;7.20;;;2.20;99.90;;;;;;5008142;28;20192;-60
2024/02/21 01:13:09;;;;;;;18.00;7.13;;;2.30;99.90;;;;;;5008951;28;20184;-59
2024/02/21 01:15:35;;;;;;;16.17;6.60;;;2.20;99.90;;;;;;5002302;28;20188;-60
2024/02/21 01:18:01;;;;;;;12.17;6.13;;;2.30;99.90;;;;;;5008164;28;20204;-59
2024/02/21 01:20:26;;;;;;;13.03;6.77;;;2.30;99.90;;;;;;5006591;28;20458;-59
2024/02/21 01:22:52;;;;;;;10.47;6.53;;;2.30;99.90;;;;;;5004999;28;20422;-59
2024/02/21 01:25:18;;;;;;;14.63;6.40;;;2.30;99.90;;;;;;5007127;28;20192;-59
2024/02/21 01:27:43;;;;;;;11.03;5.77;;;2.30;99.90;;;;;;5008060;28;20257;-60
2024/02/21 01:30:10;;;;;;;10.23;6.07;;;2.30;99.90;;;;;;5006804;28;20172;-59
2024/02/21 01:32:36;;;;;;;14.43;6.17;;;2.30;99.90;;;;;;5009650;28;20549;-60
2024/02/21 01:35:01;;;;;;;9.50;5.67;;;2.30;99.90;;;;;;5008481;28;20435;-60
2024/02/21 01:37:27;;;;;;;14.40;6.00;;;2.30;99.90;;;;;;5010298;28;20179;-59
2024/02/21 01:39:53;;;;;;;10.67;5.40;;;2.30;99.90;;;;;;5003247;28;20214;-60
2024/02/21 01:42:19;;;;;;;13.80;5.73;;;2.30;99.90;;;;;;5005795;28;20184;-60
2024/02/21 01:44:44;;;;;;;14.17;6.20;;;2.30;99.90;;;;;;5003956;28;20224;-59
2024/02/21 01:47:11;;;;;;;16.23;5.97;;;2.30;99.90;;;;;;5009713;28;20190;-60
2024/02/21 01:49:36;;;;;;;13.40;6.23;;;2.30;99.90;;;;;;5008572;28;20176;-59
2024/02/21 01:52:03;;;;;;;14.80;6.83;;;2.30;99.90;;;;;;5008228;28;20501;-60
2024/02/21 01:54:29;;;;;;;8.37;6.00;;;2.30;99.90;;;;;;5010212;28;20434;-59
2024/02/21 01:56:54;;;;;;;15.33;5.80;;;2.30;99.90;;;;;;5006911;28;20444;-59
2024/02/21 01:59:22;;;;;;;12.43;6.47;;;2.30;99.90;;;;;;5007933;28;20435;-59
2024/02/21 02:01:48;;;;;;;11.13;5.87;;;2.30;99.90;;;;;;5011085;28;20223;-59
2024/02/21 02:04:13;;;;;;;11.63;6.20;;;2.30;99.90;;;;;;5007935;28;20477;-58
2024/02/21 02:06:41;;;;;;;14.33;5.10;;;2.30;99.90;;;;;;5006307;28;20446;-60
2024/02/21 02:09:07;;;;;;;12.17;5.60;;;2.30;99.90;;;;;;5009542;28;20169;-59
2024/02/21 02:11:33;;;;;;;23.90;7.20;;;2.30;99.90;;;;;;5008099;28;20426;-60
2024/02/21 02:13:58;;;;;;;14.30;6.20;;;2.30;99.90;;;;;;5005045;28;20456;-59
2024/02/21 02:16:24;;;;;;;14.77;6.63;;;2.20;99.90;;;;;;5006661;28;20435;-59
2024/02/21 02:18:50;;;;;;;15.03;6.70;;;2.20;99.90;;;;;;5008401;28;20180;-59
2024/02/21 02:21:26;;;;;;;17.10;6.30;;;2.20;99.90;;;;;;5009590;28;20208;-60
2024/02/21 02:23:52;;;;;;;17.17;7.27;;;2.20;99.90;;;;;;5003392;28;20784;-60
2024/02/21 02:26:18;;;;;;;14.10;7.00;;;2.20;99.90;;;;;;5007152;28;20433;-59
2024/02/21 02:28:43;;;;;;;13.03;6.50;;;2.30;99.90;;;;;;5006601;28;20250;-60
2024/02/21 02:31:09;;;;;;;20.47;7.10;;;2.30;99.90;;;;;;5002528;28;20651;-60
2024/02/21 02:33:35;;;;;;;12.27;7.17;;;2.30;99.90;;;;;;5006421;28;20283;-60
2024/02/21 02:36:00;;;;;;;10.83;7.07;;;2.30;99.90;;;;;;5005043;28;20204;-59
2024/02/21 02:38:26;;;;;;;11.27;6.10;;;2.30;99.90;;;;;;5007520;28;20177;-59
2024/02/21 02:40:51;;;;;;;14.30;6.50;;;2.30;99.90;;;;;;5009070;28;20231;-59
2024/02/21 02:43:17;;;;;;;11.43;6.43;;;2.30;99.90;;;;;;5005402;28;20240;-59
2024/02/21 02:45:42;;;;;;;18.00;7.37;;;2.30;99.90;;;;;;5008187;28;20191;-60
2024/02/21 02:48:08;;;;;;;13.60;6.33;;;2.30;99.90;;;;;;5000526;28;20541;-59
2024/02/21 02:50:34;;;;;;;11.83;6.90;;;2.30;99.90;;;;;;5009033;28;20163;-59
2024/02/21 02:52:59;;;;;;;15.23;7.40;;;2.30;99.90;;;;;;5002204;28;20181;-59
2024/02/21 02:55:26;;;;;;;12.10;6.77;;;2.20;99.90;;;;;;5007891;28;20253;-59
2024/02/21 02:57:51;;;;;;;12.30;6.87;;;2.30;99.90;;;;;;5006127;28;20766;-59
2024/02/21 03:00:17;;;;;;;13.90;6.23;;;2.20;99.90;;;;;;5008206;28;20477;-60
2024/02/21 03:02:46;;;;;;;16.07;6.77;;;2.30;99.90;;;;;;5009113;28;20282;-59
2024/02/21 03:05:17;;;;;;;14.53;6.90;;;2.30;99.90;;;;;;5002149;28;20209;-58
2024/02/21 03:07:43;;;;;;;14.87;6.50;;;2.30;99.90;;;;;;5003715;28;20419;-59
2024/02/21 03:10:10;;;;;;;17.23;6.00;;;2.30;99.90;;;;;;5008518;28;20427;-59
2024/02/21 03:12:36;;;;;;;10.43;6.00;;;2.30;99.90;;;;;;5006003;28;20432;-59
2024/02/21 03:15:03;;;;;;;14.43;6.30;;;2.30;99.90;;;;;;5004432;28;20453;-60
2024/02/21 03:17:28;;;;;;;14.30;5.77;;;2.30;99.90;;;;;;5007554;28;20439;-59
2024/02/21 03:19:55;;;;;;;12.77;7.07;;;2.30;99.90;;;;;;5008098;28;20423;-60
2024/02/21 03:22:21;;;;;;;20.83;9.13;;;2.30;99.90;;;;;;5004366;28;20713;-59
2024/02/21 03:24:47;;;;;;;19.93;8.73;;;2.20;99.90;;;;;;5005175;28;20474;-59
2024/02/21 03:27:12;;;;;;;16.40;7.90;;;2.20;99.90;;;;;;5000713;28;20453;-59
2024/02/21 03:29:38;;;;;;;15.30;8.20;;;2.20;99.90;;;;;;5002526;28;20618;-59
2024/02/21 03:32:04;;;;;;;16.63;7.63;;;2.30;99.90;;;;;;5000180;28;20176;-59
2024/02/21 03:34:30;;;;;;;13.93;6.80;;;2.30;99.90;;;;;;5007606;28;20609;-59
2024/02/21 03:36:55;;;;;;;11.53;6.87;;;2.30;99.90;;;;;;5004726;28;20487;-60
2024/02/21 03:39:21;;;;;;;13.83;6.83;;;2.30;99.90;;;;;;5000274;28;20186;-59
2024/02/21 03:41:47;;;;;;;16.53;6.47;;;2.30;99.90;;;;;;5007565;28;20259;-59
2024/02/21 03:44:13;;;;;;;12.40;7.20;;;2.30;99.90;;;;;;5005905;28;20212;-59
2024/02/21 03:46:38;;;;;;;10.40;6.27;;;2.30;99.90;;;;;;5006857;28;20169;-59
2024/02/21 03:49:04;;;;;;;18.07;6.50;;;2.30;99.90;;;;;;5005035;28;20185;-59
2024/02/21 03:51:29;;;;;;;15.43;6.13;;;2.30;99.90;;;;;;5007675;28;20184;-59
2024/02/21 03:53:55;;;;;;;10.03;6.10;;;2.30;99.90;;;;;;5008981;28;20216;-59
2024/02/21 03:56:21;;;;;;;14.63;6.63;;;2.20;99.90;;;;;;5002628;28;20545;-59
2024/02/21 03:58:46;;;;;;;11.87;5.83;;;2.20;99.90;;;;;;5005429;28;20211;-58
2024/02/21 04:01:14;;;;;;;11.17;6.20;;;2.20;99.90;;;;;;4999932;28;20748;-60
2024/02/21 04:03:40;;;;;;;13.77;6.40;;;2.20;99.90;;;;;;5007349;28;20204;-59
2024/02/21 04:06:06;;;;;;;11.73;6.13;;;2.20;99.90;;;;;;5005891;28;20478;-59
2024/02/21 04:08:31;;;;;;;11.53;5.87;;;2.10;99.90;;;;;;5006769;28;20176;-60
2024/02/21 04:10:57;;;;;;;9.53;5.60;;;2.10;99.90;;;;;;5008156;28;20256;-59
2024/02/21 04:13:22;;;;;;;10.97;6.13;;;2.10;99.90;;;;;;4994094;28;20240;-59
2024/02/21 04:15:48;;;;;;;15.40;6.73;;;2.10;99.90;;;;;;5007553;28;20259;-59
2024/02/21 04:18:14;;;;;;;7.73;5.80;;;2.10;99.90;;;;;;5000751;28;20181;-60
2024/02/21 04:20:40;;;;;;;15.77;4.90;;;2.10;99.90;;;;;;5006455;28;20594;-59
2024/02/21 04:23:06;;;;;;;13.47;5.93;;;2.00;99.90;;;;;;5007071;28;20414;-59
2024/02/21 04:25:31;;;;;;;16.10;6.33;;;2.00;99.90;;;;;;5008182;28;20179;-59
2024/02/21 04:27:57;;;;;;;11.33;5.93;;;1.90;99.90;;;;;;5003251;28;20200;-60
2024/02/21 04:30:22;;;;;;;15.03;6.53;;;1.90;99.90;;;;;;5001583;28;20172;-59
2024/02/21 04:32:48;;;;;;;14.30;6.23;;;1.90;99.90;;;;;;4996405;28;20173;-59
2024/02/21 04:35:14;;;;;;;12.70;6.57;;;1.90;99.90;;;;;;5003032;28;20255;-60
2024/02/21 04:37:39;;;;;;;11.53;6.10;;;1.90;99.90;;;;;;5006184;28;20191;-59
2024/02/21 04:40:06;;;;;;;15.50;6.20;;;1.90;99.90;;;;;;5004113;28;20680;-59
2024/02/21 04:42:31;;;;;;;11.77;6.90;;;1.90;99.90;;;;;;5006767;28;20219;-60
2024/02/21 04:44:57;;;;;;;12.00;6.80;;;2.00;99.90;;;;;;5007828;28;20504;-59
2024/02/21 04:47:26;;;;;;;17.50;6.53;;;2.00;99.90;;;;;;5001337;28;20382;-59
2024/02/21 04:49:52;;;;;;;14.27;6.80;;;2.00;99.90;;;;;;4998496;28;20165;-60
2024/02/21 04:52:17;;;;;;;14.63;6.43;;;2.00;99.90;;;;;;4998911;28;20554;-60
2024/02/21 04:54:43;;;;;;;12.87;6.63;;;2.00;99.90;;;;;;5006184;28;20744;-60
2024/02/21 04:57:10;;;;;;;11.67;6.63;;;2.00;99.90;;;;;;4996932;28;20185;-59
2024/02/21 04:59:36;;;;;;;17.00;6.40;;;2.00;99.90;;;;;;5001955;28;20172;-59
2024/02/21 05:02:01;;;;;;;12.60;6.73;;;2.00;99.90;;;;;;5007241;28;20437;-59
2024/02/21 05:04:27;;;;;;;10.93;6.37;;;2.00;99.90;;;;;;5005308;28;20272;-59
2024/02/21 05:06:52;;;;;;;15.13;6.10;;;2.00;99.90;;;;;;5007949;28;20172;-59
2024/02/21 05:09:18;;;;;;;15.63;6.50;;;2.00;99.90;;;;;;5005302;28;20201;-57
2024/02/21 05:11:44;;;;;;;15.10;6.30;;;2.00;99.90;;;;;;5002596;28;20247;-57
2024/02/21 05:14:09;;;;;;;12.77;6.10;;;2.00;99.90;;;;;;5006884;28;20203;-57
2024/02/21 05:16:35;;;;;;;11.10;6.40;;;2.00;99.90;;;;;;5002646;28;20188;-57
2024/02/21 05:19:00;;;;;;;12.43;6.00;;;2.00;99.90;;;;;;5001132;28;20188;-57
2024/02/21 05:21:28;;;;;;;12.70;6.23;;;1.90;99.90;;;;;;4999046;28;20185;-59
2024/02/21 05:23:53;;;;;;;13.60;5.50;;;1.90;99.90;;;;;;5006728;28;20768;-60
2024/02/21 05:26:24;;;;;;;10.13;5.60;;;1.90;99.90;;;;;;5004651;28;21141;-59
2024/02/21 05:28:50;;;;;;;15.87;6.97;;;2.00;99.90;;;;;;5006230;28;20183;-60
2024/02/21 05:31:16;;;;;;;8.20;5.80;;;1.90;99.90;;;;;;5006394;28;20425;-59
2024/02/21 05:33:43;;;;;;;15.90;5.80;;;1.90;99.90;;;;;;5005901;28;20226;-60
2024/02/21 05:36:08;;;;;;;12.17;6.33;;;1.90;99.90;;;;;;4998628;28;20530;-60
2024/02/21 05:38:35;;;;;;;12.60;6.43;;;1.90;99.90;;;;;;5006340;28;20503;-60
2024/02/21 05:41:01;;;;;;;12.17;6.20;;;1.80;99.90;;;;;;5010363;28;20179;-59
2024/02/21 05:43:26;;;;;;;14.30;6.87;;;1.80;99.90;;;;;;5000238;28;21024;-60
2024/02/21 05:45:52;;;;;;;15.20;7.13;;;1.80;99.90;;;;;;5002160;28;20799;-57
2024/02/21 05:48:17;;;;;;;14.27;6.97;;;1.80;99.90;;;;;;5001753;28;20180;-60
2024/02/21 05:50:43;;;;;;;11.10;5.47;;;1.70;99.90;;;;;;5002658;28;20218;-60
2024/02/21 05:53:10;;;;;;;9.87;6.17;;;1.70;99.90;;;;;;5004791;28;20172;-59
2024/02/21 05:55:35;;;;;;;22.03;6.90;;;1.70;99.90;;;;;;5005882;28;20761;-60
2024/02/21 05:58:02;;;;;;;9.87;6.50;;;1.70;99.90;;;;;;5004473;28;20434;-60
2024/02/21 06:00:28;;;;;;;16.63;7.50;;;1.60;99.90;;;;;;5008127;28;20187;-60
2024/02/21 06:02:53;;;;;;;15.63;7.73;;;1.60;99.90;;;;;;5006652;28;20915;-59
2024/02/21 06:05:19;;;;;;;12.10;6.90;;;1.70;99.90;;;;;;5003452;28;22319;-60
2024/02/21 06:07:44;;;;;;;15.10;6.50;;;1.70;99.90;;;;;;5006833;28;20255;-59
2024/02/21 06:10:10;;;;;;;11.77;5.37;;;1.70;99.90;;;;;;5003235;28;20538;-60
2024/02/21 06:12:36;;;;;;;10.63;6.40;;;1.70;99.90;;;;;;5001195;28;20188;-60
2024/02/21 06:15:01;;;;;;;12.47;6.97;;;1.70;99.90;;;;;;5004828;28;20285;-60
2024/02/21 06:17:27;;;;;;;14.67;6.30;;;1.70;99.90;;;;;;5007241;28;20181;-60
2024/02/21 06:19:53;;;;;;;14.90;5.80;;;1.70;99.90;;;;;;5007787;28;20180;-59
2024/02/21 06:22:18;;;;;;;17.80;6.67;;;1.70;99.90;;;;;;5001597;28;20187;-60
2024/02/21 06:24:44;;;;;;;13.60;6.50;;;1.70;99.90;;;;;;5004883;28;20219;-59
2024/02/21 06:27:11;;;;;;;14.53;6.87;;;1.70;99.90;;;;;;5001932;28;20255;-60
2024/02/21 06:29:37;;;;;;;10.73;6.47;;;1.70;99.90;;;;;;5006597;28;20195;-59
2024/02/21 06:32:03;;;;;;;11.60;6.40;;;1.70;99.90;;;;;;5005166;28;20524;-60
2024/02/21 06:34:28;;;;;;;12.43;6.10;;;1.70;99.90;;;;;;5006786;28;20208;-60
2024/02/21 06:36:54;;;;;;;18.53;6.00;;;1.70;99.90;;;;;;5006571;28;20185;-59
2024/02/21 06:39:19;;;;;;;12.60;6.23;;;1.70;99.90;;;;;;5006287;28;21303;-60
2024/02/21 06:41:45;;;;;;;9.40;6.03;;;1.60;99.90;;;;;;5004235;28;20278;-60
2024/02/21 06:44:11;;;;;;;14.20;6.03;;;1.70;99.90;;;;;;5002672;28;20271;-60
2024/02/21 06:46:36;;;;;;;11.60;6.30;;;1.60;99.90;;;;;;5006422;28;20176;-60
2024/02/21 06:49:05;;;;;;;11.90;6.10;;;1.60;99.90;;;;;;5007414;28;20183;-60
2024/02/21 06:51:31;;;;;;;15.73;6.43;;;1.60;99.90;;;;;;5007585;28;20177;-60
2024/02/21 06:53:57;;;;;;;15.73;6.30;;;1.60;99.90;;;;;;5004352;28;20465;-60
2024/02/21 06:56:28;;;;;;;18.83;6.60;;;1.60;99.90;;;;;;5004929;28;20525;-59
2024/02/21 06:58:57;;;;;;;13.53;5.87;;;1.60;99.90;;;;;;5004939;28;20185;-60
2024/02/21 07:01:23;;;;;;;12.40;6.40;;;1.60;99.90;;;;;;5002090;28;20522;-60
2024/02/21 07:03:48;;;;;;;20.13;7.57;;;1.60;99.90;;;;;;5003310;28;20463;-60
2024/02/21 07:06:14;;;;;;;18.70;6.93;;;1.60;99.90;;;;;;5004080;28;20509;-60
2024/02/21 07:08:40;;;;;;;19.23;7.13;;;1.70;99.90;;;;;;5005733;28;20605;-60
2024/02/21 07:11:05;;;;;;;11.67;6.83;;;1.70;99.90;;;;;;5003805;28;20255;-60
2024/02/21 07:13:32;;;;;;;12.10;7.20;;;1.70;99.90;;;;;;5003419;28;20208;-58
2024/02/21 07:15:58;;;;;;;18.50;8.33;;;1.70;99.90;;;;;;5006576;28;20180;-59
2024/02/21 07:18:25;;;;;;;25.73;7.73;;;1.80;99.90;;;;;;5002913;28;20440;-59
2024/02/21 07:20:51;;;;;;;13.37;7.10;;;1.80;99.90;;;;;;5002811;28;20196;-60
2024/02/21 07:23:17;;;;;;;15.30;7.00;;;1.80;99.90;;;;;;5003350;28;20447;-60
2024/02/21 07:25:42;;;;;;;18.17;7.10;;;1.80;99.90;;;;;;5006183;28;20497;-60
2024/02/21 07:28:08;;;;;;;19.70;7.70;;;1.80;99.90;;;;;;5002742;28;20788;-60
2024/02/21 07:30:34;;;;;;;28.43;10.03;;;1.90;99.90;;;;;;5004959;28;20239;-60
2024/02/21 07:32:59;;;;;;;18.60;9.17;;;1.90;99.90;;;;;;5004309;28;20558;-59
2024/02/21 07:35:25;;;;;;;17.37;9.10;;;2.00;99.90;;;;;;5002918;28;20183;-60
2024/02/21 07:37:50;;;;;;;24.83;9.10;;;2.10;99.90;;;;;;5005950;28;20169;-60
2024/02/21 07:40:17;;;;;;;19.53;9.03;;;2.20;99.90;;;;;;5004710;28;20195;-60
2024/02/21 07:42:44;;;;;;;15.47;8.90;;;2.20;99.90;;;;;;5004330;28;20706;-60
2024/02/21 07:45:10;;;;;;;19.33;10.57;;;2.30;99.90;;;;;;5004202;28;20850;-61
2024/02/21 07:47:36;;;;;;;19.37;9.90;;;2.30;99.90;;;;;;5003691;28;20434;-60
2024/02/21 07:50:06;;;;;;;17.73;10.43;;;2.40;99.90;;;;;;5005596;28;20431;-60
2024/02/21 07:52:31;;;;;;;23.27;10.20;;;2.40;99.90;;;;;;5002934;28;20581;-60
2024/02/21 07:54:57;;;;;;;19.27;10.20;;;2.50;99.90;;;;;;5002167;28;20462;-60
2024/02/21 07:57:23;;;;;;;19.07;9.70;;;2.60;99.90;;;;;;5003620;28;20266;-60
2024/02/21 07:59:48;;;;;;;16.40;8.50;;;2.60;99.90;;;;;;5005268;28;20190;-60
2024/02/21 08:02:14;;;;;;;16.60;8.80;;;2.70;99.90;;;;;;5004386;28;20184;-60
2024/02/21 08:04:40;;;;;;;23.83;10.50;;;2.70;99.90;;;;;;5003196;28;20204;-61
2024/02/21 08:07:06;;;;;;;16.83;8.70;;;2.70;99.90;;;;;;5003419;28;20952;-60
2024/02/21 08:09:32;;;;;;;13.83;8.10;;;2.80;99.90;;;;;;5004265;28;20428;-60
2024/02/21 08:11:57;;;;;;;22.23;8.10;;;2.80;99.90;;;;;;5004565;28;20764;-60
2024/02/21 08:14:24;;;;;;;14.23;7.53;;;2.80;99.90;;;;;;5005815;28;20219;-60
2024/02/21 08:16:51;;;;;;;14.40;6.27;;;2.90;99.90;;;;;;5005064;28;20208;-60
2024/02/21 08:19:17;;;;;;;11.77;7.17;;;2.90;99.90;;;;;;5003006;28;20809;-60
2024/02/21 08:21:43;;;;;;;15.07;6.67;;;2.90;99.90;;;;;;5004612;28;20470;-60
2024/02/21 08:24:09;;;;;;;16.10;6.77;;;2.90;99.90;;;;;;5006040;28;20504;-60
2024/02/21 08:26:35;;;;;;;16.07;6.50;;;3.00;99.90;;;;;;4999463;28;20184;-60
2024/02/21 08:29:01;;;;;;;14.00;8.07;;;3.00;99.90;;;;;;5002205;28;20257;-59
2024/02/21 08:31:34;;;;;;;25.47;9.00;;;3.10;99.90;;;;;;5003220;28;20520;-60
2024/02/21 08:34:03;;;;;;;23.53;8.60;;;3.20;99.90;;;;;;5006279;28;20443;-60
2024/02/21 08:36:38;;;;;;;19.20;10.37;;;3.30;99.90;;;;;;5008886;28;21017;-60
2024/02/21 08:39:04;;;;;;;20.13;9.03;;;3.50;99.90;;;;;;5006342;28;20440;-59
2024/02/21 08:41:34;;;;;;;22.13;10.03;;;3.60;99.90;;;;;;5009093;28;20450;-60
2024/02/21 08:44:00;;;;;;;23.83;9.77;;;3.70;99.90;;;;;;5007052;28;20481;-60
2024/02/21 08:46:26;;;;;;;23.43;8.90;;;3.80;99.90;;;;;;5004221;28;20434;-60
2024/02/21 08:48:52;;;;;;;20.57;8.93;;;3.90;99.90;;;;;;5008370;28;20602;-60
2024/02/21 08:51:18;;;;;;;23.17;8.53;;;4.00;99.90;;;;;;5004267;28;20482;-60
2024/02/21 08:53:45;;;;;;;18.93;8.40;;;4.00;99.90;;;;;;5004355;28;20462;-60
2024/02/21 08:56:10;;;;;;;20.83;9.27;;;4.10;99.90;;;;;;5001151;28;20443;-59
2024/02/21 08:58:38;;;;;;;16.37;8.10;;;4.30;99.90;;;;;;5005272;28;20488;-61
2024/02/21 09:01:05;;;;;;;18.17;7.90;;;4.30;99.90;;;;;;5003439;28;20434;-60
2024/02/21 09:03:33;;;;;;;14.40;8.07;;;4.40;99.90;;;;;;5003978;28;20600;-59
2024/02/21 09:05:59;;;;;;;15.60;8.13;;;4.40;99.90;;;;;;5001822;28;20527;-59
2024/02/21 09:08:26;;;;;;;23.93;8.60;;;4.50;99.90;;;;;;5004472;28;20435;-59
2024/02/21 09:10:51;;;;;;;12.80;7.83;;;4.60;99.90;;;;;;5007545;28;20423;-60
2024/02/21 09:13:17;;;;;;;16.90;8.40;;;4.70;99.90;;;;;;5001719;28;20936;-60
2024/02/21 09:15:43;;;;;;;19.77;8.00;;;4.70;99.90;;;;;;5007807;28;20275;-60
2024/02/21 09:18:09;;;;;;;13.50;8.17;;;4.80;99.90;;;;;;5004798;28;20177;-60
2024/02/21 09:20:34;;;;;;;19.53;8.17;;;4.90;99.90;;;;;;5004850;28;20691;-60
2024/02/21 09:23:00;;;;;;;15.63;7.03;;;5.00;99.90;;;;;;5000176;28;20425;-58
2024/02/21 09:25:25;;;;;;;14.37;8.23;;;5.20;99.90;;;;;;5007707;28;20200;-59
2024/02/21 09:27:53;;;;;;;11.10;6.63;;;5.30;99.90;;;;;;5007194;28;20318;-60
2024/02/21 09:30:19;;;;;;;13.30;7.30;;;5.40;99.90;;;;;;5005676;28;20682;-60
2024/02/21 09:32:45;;;;;;;14.67;7.03;;;5.50;99.90;;;;;;5008361;28;20412;-60
2024/02/21 09:35:12;;;;;;;21.73;7.57;;;5.60;99.90;;;;;;5002835;28;20744;-57
2024/02/21 09:37:41;;;;;;;14.67;7.40;;;5.80;99.90;;;;;;5004763;28;20240;-57
2024/02/21 09:40:07;;;;;;;10.83;6.57;;;5.90;99.90;;;;;;5007146;28;21000;-60
2024/02/21 09:42:40;;;;;;;12.40;6.57;;;6.00;99.90;;;;;;5004439;28;20458;-60
2024/02/21 09:45:23;;;;;;;13.83;6.07;;;6.10;99.90;;;;;;5003628;28;20482;-60
2024/02/21 09:47:52;;;;;;;11.57;5.90;;;6.20;99.90;;;;;;5004646;28;20529;-60
2024/02/21 09:50:18;;;;;;;10.00;5.80;;;6.30;99.90;;;;;;5019478;28;20515;-60
2024/02/21 09:52:44;;;;;;;14.07;5.80;;;6.40;99.90;;;;;;5006327;28;20510;-60
2024/02/21 09:55:13;;;;;;;11.77;5.47;;;6.60;99.20;;;;;;5005287;28;20559;-60
2024/02/21 09:57:39;;;;;;;12.03;5.63;;;6.70;97.70;;;;;;5005531;28;21180;-60
2024/02/21 10:00:08;;;;;;;10.33;6.13;;;6.80;96.70;;;;;;5007081;28;20443;-60
2024/02/21 10:02:34;;;;;;;7.47;4.87;;;6.90;94.70;;;;;;4998392;28;20185;-60
2024/02/21 10:04:59;;;;;;;9.67;4.40;;;6.90;91.90;;;;;;4996720;28;20470;-60
2024/02/21 10:07:25;;;;;;;10.87;4.60;;;7.00;90.20;;;;;;5002204;28;20434;-61
2024/02/21 10:10:01;;;;;;;10.30;4.70;;;7.10;89.00;;;;;;5004425;28;20189;-60
2024/02/21 10:12:27;;;;;;;5.70;3.73;;;7.10;88.10;;;;;;5005079;28;20442;-60
2024/02/21 10:15:03;;;;;;;6.00;3.80;;;7.20;83.70;;;;;;5004980;28;20447;-60
2024/02/21 10:17:29;;;;;;;10.80;4.70;;;7.40;84.10;;;;;;5004463;28;20632;-55
2024/02/21 10:19:54;;;;;;;10.10;4.67;;;7.50;83.00;;;;;;5002740;28;20458;-56
2024/02/21 10:22:25;;;;;;;29.30;4.80;;;7.70;79.70;;;;;;5002054;28;20608;-56
2024/02/21 10:24:51;;;;;;;7.07;3.53;;;7.80;78.30;;;;;;5003069;28;20203;-55
2024/02/21 10:27:16;;;;;;;4.40;3.60;;;7.90;76.60;;;;;;5001393;28;20827;-60
2024/02/21 10:29:42;;;;;;;5.40;3.93;;;8.00;74.90;;;;;;5007059;28;20180;-59
2024/02/21 10:32:13;;;;;;;6.60;3.77;;;8.10;72.70;;;;;;5006844;28;20640;-60
2024/02/21 10:34:41;;;;;;;5.70;3.90;;;8.10;70.60;;;;;;5001200;28;20208;-60
2024/02/21 10:37:08;;;;;;;7.17;3.50;;;8.10;70.00;;;;;;4999707;28;20431;-60
2024/02/21 10:39:37;;;;;;;10.33;4.00;;;8.10;69.60;;;;;;5004359;28;20436;-61
2024/02/21 10:42:03;;;;;;;7.20;4.00;;;8.10;70.40;;;;;;5004805;28;20466;-59
2024/02/21 10:44:31;;;;;;;7.50;4.00;;;8.20;68.80;;;;;;5004745;28;20498;-60
2024/02/21 10:46:57;;;;;;;6.67;4.10;;;8.20;68.60;;;;;;5003074;28;20459;-60
2024/02/21 10:49:31;;;;;;;4.90;3.80;;;8.30;68.50;;;;;;5005325;28;20437;-59
2024/02/21 10:52:08;;;;;;;6.00;4.00;;;8.40;67.80;;;;;;5003676;28;20443;-60
2024/02/21 10:54:45;;;;;;;4.13;3.30;;;8.50;67.20;;;;;;4998367;28;20462;-60
2024/02/21 10:57:13;;;;;;;9.63;3.30;;;8.60;66.40;;;;;;5002729;28;20442;-60
2024/02/21 10:59:39;;;;;;;4.93;2.80;;;8.60;66.20;;;;;;5005172;28;20942;-60
2024/02/21 11:02:05;;;;;;;4.47;3.10;;;8.70;66.20;;;;;;5006210;28;20454;-60
2024/02/21 11:04:36;;;;;;;9.17;2.90;;;8.80;65.60;;;;;;5003951;28;20478;-60
2024/02/21 11:07:03;;;;;;;8.27;3.73;;;8.90;65.60;;;;;;5001707;28;20435;-60
2024/02/21 11:09:33;;;;;;;7.00;3.20;;;8.90;64.90;;;;;;5006062;28;20427;-60
2024/02/21 11:12:02;;;;;;;4.73;2.77;;;9.10;64.10;;;;;;5001988;28;20431;-61
2024/02/21 11:14:28;;;;;;;3.87;3.43;;;9.10;63.90;;;;;;5007204;28;20448;-61
2024/02/21 11:16:55;;;;;;;5.10;3.03;;;9.20;62.30;;;;;;4997366;28;20439;-60
2024/02/21 11:19:28;;;;;;;5.50;3.20;;;9.20;62.70;;;;;;5001978;28;20448;-61
2024/02/21 11:22:01;;;;;;;6.70;2.70;;;9.20;62.70;;;;;;5000918;28;20805;-61
2024/02/21 11:24:29;;;;;;;4.40;3.03;;;9.30;62.80;;;;;;5003575;28;20679;-60
2024/02/21 11:26:56;;;;;;;11.17;3.13;;;9.40;62.50;;;;;;4998974;28;20527;-62
2024/02/21 11:29:25;;;;;;;4.53;2.93;;;9.50;62.80;;;;;;5001761;28;20471;-61
2024/02/21 11:31:52;;;;;;;6.93;3.33;;;9.50;63.20;;;;;;4998810;28;20459;-60
2024/02/21 11:34:19;;;;;;;4.67;2.70;;;9.70;63.30;;;;;;4996210;28;20575;-62
2024/02/21 11:36:52;;;;;;;3.67;2.80;;;9.80;62.90;;;;;;5018793;28;20442;-60
2024/02/21 11:39:24;;;;;;;4.77;3.27;;;9.90;62.80;;;;;;5001416;28;20861;-59
2024/02/21 11:42:07;;;;;;;7.97;3.40;;;9.90;62.20;;;;;;4999653;28;20438;-59
2024/02/21 11:44:34;;;;;;;3.87;3.00;;;10.00;61.60;;;;;;5014806;28;20478;-58
2024/02/21 11:47:00;;;;;;;5.97;2.73;;;10.10;60.80;;;;;;4999460;28;20439;-58
2024/02/21 11:49:26;;;;;;;4.37;3.23;;;10.10;59.20;;;;;;5000907;28;20423;-61
2024/02/21 11:52:00;;;;;;;5.70;3.53;;;10.00;59.00;;;;;;4999192;28;20177;-62
2024/02/21 11:54:26;;;;;;;5.10;3.77;;;10.00;59.20;;;;;;5002468;28;20542;-63
2024/02/21 11:56:52;;;;;;;3.77;3.07;;;10.00;59.50;;;;;;5004961;28;20495;-62
2024/02/21 11:59:17;;;;;;;7.80;3.93;;;10.10;59.60;;;;;;5004029;28;20184;-62
2024/02/21 12:01:43;;;;;;;4.40;3.20;;;10.20;59.50;;;;;;5006512;28;20187;-62
2024/02/21 12:04:08;;;;;;;7.20;3.07;;;10.20;59.10;;;;;;5004419;28;20695;-62
2024/02/21 12:06:35;;;;;;;9.03;3.40;;;10.30;58.90;;;;;;5002305;28;20719;-63
2024/02/21 12:09:01;;;;;;;6.40;3.50;;;10.40;59.10;;;;;;5004904;28;20194;-63
2024/02/21 12:11:26;;;;;;;8.00;3.30;;;10.50;59.40;;;;;;5005910;28;20419;-62
2024/02/21 12:14:00;;;;;;;8.00;4.00;;;10.60;59.60;;;;;;5003751;28;20446;-62
2024/02/21 12:16:29;;;;;;;15.40;5.50;;;10.70;59.50;;;;;;5006276;28;20173;-62
2024/02/21 12:18:55;;;;;;;11.13;4.20;;;10.80;59.00;;;;;;5003823;28;20427;-62
2024/02/21 12:21:24;;;;;;;8.30;3.47;;;10.70;58.50;;;;;;5001801;28;20427;-62
2024/02/21 12:23:49;;;;;;;9.87;4.97;;;10.70;58.90;;;;;;4997029;28;20475;-61
2024/02/21 12:26:15;;;;;;;5.87;3.90;;;10.60;58.10;;;;;;4997405;28;20860;-62
2024/02/21 12:28:41;;;;;;;4.03;3.23;;;10.60;58.70;;;;;;5016354;28;20192;-62
2024/02/21 12:31:06;;;;;;;8.80;4.47;;;10.70;59.10;;;;;;4999529;28;20264;-62
2024/02/21 12:33:33;;;;;;;4.07;3.63;;;10.70;59.00;;;;;;5006652;28;20196;-62
2024/02/21 12:35:58;;;;;;;6.10;3.17;;;10.90;59.40;;;;;;5003404;28;20348;-62
2024/02/21 12:38:24;;;;;;;4.87;3.43;;;11.00;59.20;;;;;;4998648;28;20653;-62
2024/02/21 12:40:50;;;;;;;4.80;3.93;;;11.10;58.40;;;;;;5002675;28;20172;-62
2024/02/21 12:43:15;;;;;;;5.90;3.67;;;11.10;57.90;;;;;;4998195;28;20574;-62